KLM467 LEPA-LEZL
Flight info
| Callsign | KLM467 |
|---|---|
| Flight time | 1h 13m |
| Altitude | 33000 |
| Route | EPAMA N733 VLC M985 YES N747 BLN |
| Aircraft | B739/M-SDE2E3FGHIRWXY/LB1 |
Departure
| Time | 2026-03-27 12:16 |
|---|---|
| Airport | Palma de Mallorca Airport (LEPA) |
Arrival
| Time | 2026-03-27 13:29 |
|---|---|
| Airport | Seville Airport (LEZL) |
| Time | Latitude | Longitude | Altitude | Speed | Heading |
|---|---|---|---|---|---|
| 2026-03-27 11:59 | 39.55132 | 2.72971 | 36 ft | 0 kts | 162° |
| 2026-03-27 12:06 | 39.55142 | 2.72966 | 36 ft | 3 kts | 158° |
| 2026-03-27 12:06 | 39.55160 | 2.72955 | 36 ft | 3 kts | 144° |
| 2026-03-27 12:07 | 39.55175 | 2.72938 | 35 ft | 3 kts | 126° |
| 2026-03-27 12:07 | 39.55184 | 2.72917 | 37 ft | 3 kts | 97° |
| 2026-03-27 12:07 | 39.55184 | 2.72897 | 33 ft | 2 kts | 60° |
| 2026-03-27 12:07 | 39.55183 | 2.72894 | 33 ft | 1 kts | 59° |
| 2026-03-27 12:09 | 39.55198 | 2.72927 | 36 ft | 15 kts | 59° |
| 2026-03-27 12:10 | 39.55254 | 2.73032 | 36 ft | 13 kts | 29° |
| 2026-03-27 12:10 | 39.55317 | 2.73017 | 36 ft | 9 kts | 327° |
| 2026-03-27 12:10 | 39.55370 | 2.72979 | 37 ft | 9 kts | 345° |
| 2026-03-27 12:10 | 39.55422 | 2.73005 | 36 ft | 8 kts | 52° |
| 2026-03-27 12:11 | 39.55451 | 2.73069 | 37 ft | 8 kts | 59° |
| 2026-03-27 12:11 | 39.55480 | 2.73131 | 36 ft | 8 kts | 58° |
| 2026-03-27 12:11 | 39.55511 | 2.73196 | 36 ft | 10 kts | 58° |
| 2026-03-27 12:11 | 39.55567 | 2.73308 | 36 ft | 19 kts | 57° |
| 2026-03-27 12:12 | 39.55638 | 2.73458 | 36 ft | 19 kts | 58° |
| 2026-03-27 12:12 | 39.55706 | 2.73603 | 37 ft | 19 kts | 59° |
| 2026-03-27 12:12 | 39.55756 | 2.73709 | 37 ft | 11 kts | 58° |
| 2026-03-27 12:12 | 39.55801 | 2.73810 | 37 ft | 17 kts | 59° |
| 2026-03-27 12:13 | 39.55866 | 2.73945 | 37 ft | 18 kts | 57° |
| 2026-03-27 12:13 | 39.55932 | 2.74081 | 37 ft | 17 kts | 58° |
| 2026-03-27 12:13 | 39.55993 | 2.74210 | 37 ft | 17 kts | 57° |
| 2026-03-27 12:13 | 39.56073 | 2.74290 | 37 ft | 11 kts | 26° |
| 2026-03-27 12:14 | 39.56134 | 2.74329 | 37 ft | 0 kts | 26° |
| 2026-03-27 12:14 | 39.56173 | 2.74344 | 37 ft | 11 kts | 5° |
| 2026-03-27 12:14 | 39.56224 | 2.74286 | 36 ft | 11 kts | 273° |
| 2026-03-27 12:15 | 39.56216 | 2.74248 | 35 ft | 0 kts | 244° |
| 2026-03-27 12:15 | 39.56101 | 2.74001 | 37 ft | 73 kts | 238° |
| 2026-03-27 12:15 | 39.55699 | 2.73145 | 37 ft | 145 kts | 238° |
| 2026-03-27 12:16 | 39.55063 | 2.71897 | 404 ft | 172 kts | 237° |
| 2026-03-27 12:16 | 39.54325 | 2.70593 | 1152 ft | 188 kts | 236° |
| 2026-03-27 12:16 | 39.53547 | 2.69143 | 1906 ft | 196 kts | 243° |
| 2026-03-27 12:16 | 39.52840 | 2.67618 | 2666 ft | 205 kts | 242° |
| 2026-03-27 12:17 | 39.52062 | 2.65974 | 3069 ft | 224 kts | 242° |
| 2026-03-27 12:17 | 39.51217 | 2.64231 | 3809 ft | 228 kts | 241° |
| 2026-03-27 12:17 | 39.50368 | 2.62515 | 4739 ft | 226 kts | 241° |
| 2026-03-27 12:17 | 39.49510 | 2.60804 | 5532 ft | 228 kts | 240° |
| 2026-03-27 12:18 | 39.48641 | 2.59084 | 6319 ft | 230 kts | 240° |
| 2026-03-27 12:18 | 39.47747 | 2.57324 | 6981 ft | 236 kts | 241° |
| 2026-03-27 12:18 | 39.46833 | 2.55532 | 7633 ft | 242 kts | 241° |
| 2026-03-27 12:18 | 39.45910 | 2.53725 | 8313 ft | 246 kts | 242° |
| 2026-03-27 12:19 | 39.45062 | 2.51778 | 8788 ft | 255 kts | 260° |
| 2026-03-27 12:19 | 39.45043 | 2.49470 | 9022 ft | 265 kts | 286° |
| 2026-03-27 12:19 | 39.45405 | 2.47071 | 9566 ft | 277 kts | 287° |
| 2026-03-27 12:19 | 39.45783 | 2.44606 | 10261 ft | 282 kts | 287° |
| 2026-03-27 12:20 | 39.46176 | 2.42035 | 10624 ft | 301 kts | 287° |
| 2026-03-27 12:20 | 39.46593 | 2.39272 | 10812 ft | 324 kts | 286° |
| 2026-03-27 12:20 | 39.47019 | 2.36355 | 11312 ft | 334 kts | 286° |
| 2026-03-27 12:20 | 39.47441 | 2.33388 | 12005 ft | 337 kts | 286° |
| 2026-03-27 12:21 | 39.47862 | 2.30383 | 12745 ft | 340 kts | 286° |
| 2026-03-27 12:21 | 39.48284 | 2.27346 | 13397 ft | 346 kts | 286° |
| 2026-03-27 12:21 | 39.48715 | 2.24250 | 14009 ft | 352 kts | 286° |
| 2026-03-27 12:21 | 39.49145 | 2.21132 | 14681 ft | 353 kts | 286° |
| 2026-03-27 12:22 | 39.49574 | 2.18004 | 15385 ft | 353 kts | 285° |
| 2026-03-27 12:22 | 39.50005 | 2.14861 | 16056 ft | 355 kts | 285° |
| 2026-03-27 12:22 | 39.50438 | 2.11707 | 16696 ft | 358 kts | 285° |
| 2026-03-27 12:22 | 39.50875 | 2.08520 | 17323 ft | 360 kts | 285° |
| 2026-03-27 12:23 | 39.51313 | 2.05314 | 17956 ft | 363 kts | 285° |
| 2026-03-27 12:23 | 39.51749 | 2.02121 | 18553 ft | 365 kts | 285° |
| 2026-03-27 12:23 | 39.52192 | 1.98868 | 19081 ft | 368 kts | 285° |
| 2026-03-27 12:23 | 39.52638 | 1.95588 | 19600 ft | 372 kts | 285° |
| 2026-03-27 12:24 | 39.53087 | 1.92280 | 20122 ft | 375 kts | 285° |
| 2026-03-27 12:24 | 39.53540 | 1.88930 | 20566 ft | 379 kts | 285° |
| 2026-03-27 12:24 | 39.53999 | 1.85538 | 21008 ft | 384 kts | 285° |
| 2026-03-27 12:24 | 39.54459 | 1.82116 | 21543 ft | 386 kts | 285° |
| 2026-03-27 12:25 | 39.54920 | 1.78678 | 22098 ft | 388 kts | 285° |
| 2026-03-27 12:25 | 39.55383 | 1.75224 | 22611 ft | 391 kts | 285° |
| 2026-03-27 12:25 | 39.55849 | 1.71740 | 23099 ft | 394 kts | 285° |
| 2026-03-27 12:25 | 39.56318 | 1.68221 | 23608 ft | 397 kts | 285° |
| 2026-03-27 12:26 | 39.56788 | 1.64684 | 24042 ft | 400 kts | 285° |
| 2026-03-27 12:26 | 39.57261 | 1.61122 | 24467 ft | 402 kts | 285° |
| 2026-03-27 12:26 | 39.57735 | 1.57537 | 24884 ft | 404 kts | 285° |
| 2026-03-27 12:26 | 39.58211 | 1.53934 | 25285 ft | 407 kts | 285° |
| 2026-03-27 12:27 | 39.58690 | 1.50304 | 25602 ft | 412 kts | 285° |
| 2026-03-27 12:27 | 39.59174 | 1.46624 | 25932 ft | 416 kts | 285° |
| 2026-03-27 12:27 | 39.59661 | 1.42912 | 26348 ft | 417 kts | 285° |
| 2026-03-27 12:27 | 39.60145 | 1.39190 | 26779 ft | 419 kts | 284° |
| 2026-03-27 12:28 | 39.60346 | 1.35382 | 27142 ft | 430 kts | 274° |
| 2026-03-27 12:28 | 39.60155 | 1.31487 | 27529 ft | 434 kts | 271° |
| 2026-03-27 12:28 | 39.59885 | 1.27576 | 27892 ft | 438 kts | 270° |
| 2026-03-27 12:28 | 39.59604 | 1.23689 | 28244 ft | 440 kts | 270° |
| 2026-03-27 12:29 | 39.59331 | 1.19733 | 28603 ft | 442 kts | 271° |
| 2026-03-27 12:29 | 39.59076 | 1.15757 | 29035 ft | 442 kts | 271° |
| 2026-03-27 12:29 | 39.58834 | 1.11786 | 29521 ft | 441 kts | 271° |
| 2026-03-27 12:29 | 39.58602 | 1.07826 | 30006 ft | 440 kts | 271° |
| 2026-03-27 12:30 | 39.58374 | 1.03859 | 30455 ft | 439 kts | 271° |
| 2026-03-27 12:30 | 39.58148 | 0.99928 | 30856 ft | 437 kts | 271° |
| 2026-03-27 12:30 | 39.57922 | 0.95997 | 31246 ft | 437 kts | 272° |
| 2026-03-27 12:30 | 39.57694 | 0.92072 | 31619 ft | 436 kts | 272° |
| 2026-03-27 12:31 | 39.57464 | 0.88151 | 31977 ft | 436 kts | 272° |
| 2026-03-27 12:31 | 39.57233 | 0.84230 | 32311 ft | 436 kts | 272° |
| 2026-03-27 12:31 | 39.56999 | 0.80309 | 32685 ft | 435 kts | 272° |
| 2026-03-27 12:31 | 39.56766 | 0.76408 | 33028 ft | 434 kts | 272° |
| 2026-03-27 12:32 | 39.56531 | 0.72481 | 33078 ft | 439 kts | 271° |
| 2026-03-27 12:32 | 39.56052 | 0.64583 | 33094 ft | 438 kts | 271° |
| 2026-03-27 12:33 | 39.55573 | 0.56789 | 33100 ft | 435 kts | 271° |
| 2026-03-27 12:33 | 39.55094 | 0.48993 | 33100 ft | 433 kts | 271° |
| 2026-03-27 12:34 | 39.54612 | 0.41233 | 33096 ft | 431 kts | 271° |
| 2026-03-27 12:34 | 39.54128 | 0.33493 | 33091 ft | 431 kts | 271° |
| 2026-03-27 12:35 | 39.53634 | 0.25749 | 33097 ft | 433 kts | 271° |
| 2026-03-27 12:35 | 39.53126 | 0.17952 | 33100 ft | 435 kts | 270° |
| 2026-03-27 12:36 | 39.52613 | 0.10169 | 33101 ft | 438 kts | 270° |
| 2026-03-27 12:36 | 39.52089 | 0.02286 | 33098 ft | 440 kts | 270° |
| 2026-03-27 12:37 | 39.51644 | -0.04336 | 33075 ft | 441 kts | 270° |
| 2026-03-27 12:37 | 39.51111 | -0.12199 | 33077 ft | 441 kts | 270° |
| 2026-03-27 12:38 | 39.50570 | -0.20112 | 33080 ft | 440 kts | 270° |
| 2026-03-27 12:38 | 39.50025 | -0.28006 | 33076 ft | 440 kts | 270° |
| 2026-03-27 12:39 | 39.49477 | -0.35880 | 33076 ft | 438 kts | 269° |
| 2026-03-27 12:39 | 39.48894 | -0.43728 | 33069 ft | 439 kts | 265° |
| 2026-03-27 12:39 | 39.48139 | -0.47582 | 33085 ft | 445 kts | 254° |
| 2026-03-27 12:40 | 39.46852 | -0.51242 | 33079 ft | 450 kts | 244° |
| 2026-03-27 12:40 | 39.43151 | -0.57844 | 33081 ft | 454 kts | 235° |
| 2026-03-27 12:41 | 39.39262 | -0.64271 | 33066 ft | 453 kts | 236° |
| 2026-03-27 12:41 | 39.35443 | -0.70696 | 33061 ft | 453 kts | 236° |
| 2026-03-27 12:42 | 39.31641 | -0.77154 | 33052 ft | 453 kts | 236° |
| 2026-03-27 12:42 | 39.27831 | -0.83616 | 33054 ft | 453 kts | 236° |
| 2026-03-27 12:43 | 39.24003 | -0.90079 | 33056 ft | 453 kts | 236° |
| 2026-03-27 12:43 | 39.20188 | -0.96499 | 33057 ft | 453 kts | 236° |
| 2026-03-27 12:44 | 39.16356 | -1.02939 | 33053 ft | 453 kts | 236° |
| 2026-03-27 12:44 | 39.12516 | -1.09381 | 33055 ft | 453 kts | 235° |
| 2026-03-27 12:45 | 39.08675 | -1.15815 | 33046 ft | 453 kts | 235° |
| 2026-03-27 12:45 | 39.04862 | -1.22190 | 33051 ft | 453 kts | 235° |
| 2026-03-27 12:46 | 39.01013 | -1.28611 | 33058 ft | 453 kts | 234° |
| 2026-03-27 12:46 | 38.97170 | -1.35020 | 33063 ft | 453 kts | 234° |
| 2026-03-27 12:47 | 38.93320 | -1.41435 | 33064 ft | 453 kts | 234° |
| 2026-03-27 12:47 | 38.89468 | -1.47841 | 33074 ft | 453 kts | 234° |
| 2026-03-27 12:48 | 38.85608 | -1.54247 | 33052 ft | 453 kts | 234° |
| 2026-03-27 12:48 | 38.81749 | -1.60638 | 33070 ft | 453 kts | 234° |
| 2026-03-27 12:49 | 38.77884 | -1.67029 | 33079 ft | 454 kts | 234° |
| 2026-03-27 12:49 | 38.74013 | -1.73417 | 33078 ft | 454 kts | 234° |
| 2026-03-27 12:50 | 38.70269 | -1.79578 | 33077 ft | 455 kts | 233° |
| 2026-03-27 12:50 | 38.66373 | -1.85970 | 33079 ft | 455 kts | 233° |
| 2026-03-27 12:51 | 38.62479 | -1.92348 | 33062 ft | 455 kts | 233° |
| 2026-03-27 12:51 | 38.58582 | -1.98721 | 33084 ft | 455 kts | 233° |
| 2026-03-27 12:52 | 38.54683 | -2.05089 | 33065 ft | 455 kts | 233° |
| 2026-03-27 12:52 | 38.50780 | -2.11447 | 33068 ft | 455 kts | 233° |
| 2026-03-27 12:53 | 38.46867 | -2.17818 | 33059 ft | 455 kts | 233° |
| 2026-03-27 12:53 | 38.42960 | -2.24173 | 33052 ft | 455 kts | 233° |
| 2026-03-27 12:54 | 38.39047 | -2.30524 | 33059 ft | 455 kts | 233° |
| 2026-03-27 12:54 | 38.35028 | -2.41273 | 33045 ft | 448 kts | 260° |
| 2026-03-27 12:55 | 38.33824 | -2.49055 | 33054 ft | 448 kts | 261° |
| 2026-03-27 12:55 | 38.32647 | -2.56846 | 33050 ft | 448 kts | 261° |
| 2026-03-27 12:56 | 38.31438 | -2.64574 | 33055 ft | 448 kts | 261° |
| 2026-03-27 12:56 | 38.30192 | -2.72352 | 33046 ft | 448 kts | 260° |
| 2026-03-27 12:57 | 38.28934 | -2.80131 | 33049 ft | 448 kts | 260° |
| 2026-03-27 12:57 | 38.27673 | -2.87904 | 33053 ft | 448 kts | 260° |
| 2026-03-27 12:58 | 38.26407 | -2.95680 | 33065 ft | 448 kts | 260° |
| 2026-03-27 12:58 | 38.25137 | -3.03443 | 33061 ft | 448 kts | 260° |
| 2026-03-27 12:59 | 38.23864 | -3.11197 | 33048 ft | 448 kts | 260° |
| 2026-03-27 12:59 | 38.22586 | -3.18942 | 33057 ft | 448 kts | 260° |
| 2026-03-27 13:00 | 38.21301 | -3.26699 | 33066 ft | 448 kts | 260° |
| 2026-03-27 13:00 | 38.20012 | -3.34444 | 33058 ft | 448 kts | 260° |
| 2026-03-27 13:01 | 38.18715 | -3.42207 | 33066 ft | 449 kts | 260° |
| 2026-03-27 13:01 | 38.17412 | -3.49977 | 33060 ft | 448 kts | 260° |
| 2026-03-27 13:02 | 38.16106 | -3.57731 | 33066 ft | 449 kts | 259° |
| 2026-03-27 13:02 | 38.14703 | -3.65452 | 33063 ft | 450 kts | 256° |
| 2026-03-27 13:03 | 38.12860 | -3.73007 | 33075 ft | 450 kts | 253° |
| 2026-03-27 13:03 | 38.10917 | -3.80569 | 33065 ft | 450 kts | 253° |
| 2026-03-27 13:04 | 38.09010 | -3.88150 | 33055 ft | 450 kts | 254° |
| 2026-03-27 13:04 | 38.07136 | -3.95711 | 33050 ft | 444 kts | 254° |
| 2026-03-27 13:05 | 38.06222 | -3.99405 | 32983 ft | 432 kts | 254° |
| 2026-03-27 13:05 | 38.05327 | -4.03019 | 32611 ft | 426 kts | 254° |
| 2026-03-27 13:05 | 38.04443 | -4.06585 | 32181 ft | 422 kts | 254° |
| 2026-03-27 13:05 | 38.03566 | -4.10119 | 31777 ft | 418 kts | 255° |
| 2026-03-27 13:06 | 38.02696 | -4.13619 | 31335 ft | 415 kts | 255° |
| 2026-03-27 13:06 | 38.01830 | -4.17093 | 30906 ft | 411 kts | 255° |
| 2026-03-27 13:06 | 38.00972 | -4.20534 | 30486 ft | 409 kts | 255° |
| 2026-03-27 13:06 | 38.00130 | -4.23904 | 30060 ft | 406 kts | 255° |
| 2026-03-27 13:07 | 37.99264 | -4.27367 | 29558 ft | 403 kts | 255° |
| 2026-03-27 13:07 | 37.98420 | -4.30734 | 29134 ft | 399 kts | 255° |
| 2026-03-27 13:07 | 37.97595 | -4.34021 | 28700 ft | 395 kts | 255° |
| 2026-03-27 13:07 | 37.96755 | -4.37364 | 28289 ft | 391 kts | 255° |
| 2026-03-27 13:08 | 37.95941 | -4.40601 | 27859 ft | 388 kts | 255° |
| 2026-03-27 13:08 | 37.95123 | -4.43848 | 27450 ft | 385 kts | 255° |
| 2026-03-27 13:08 | 37.94312 | -4.47064 | 27037 ft | 382 kts | 255° |
| 2026-03-27 13:08 | 37.93506 | -4.50257 | 26631 ft | 379 kts | 255° |
| 2026-03-27 13:09 | 37.92702 | -4.53437 | 26230 ft | 377 kts | 255° |
| 2026-03-27 13:09 | 37.91905 | -4.56583 | 25838 ft | 374 kts | 255° |
| 2026-03-27 13:09 | 37.91113 | -4.59710 | 25437 ft | 372 kts | 255° |
| 2026-03-27 13:09 | 37.90323 | -4.62822 | 25053 ft | 369 kts | 255° |
| 2026-03-27 13:10 | 37.89540 | -4.65904 | 24666 ft | 368 kts | 255° |
| 2026-03-27 13:10 | 37.88758 | -4.68980 | 24270 ft | 366 kts | 255° |
| 2026-03-27 13:10 | 37.87978 | -4.72042 | 23891 ft | 364 kts | 255° |
| 2026-03-27 13:10 | 37.87203 | -4.75084 | 23484 ft | 363 kts | 255° |
| 2026-03-27 13:11 | 37.86439 | -4.78078 | 23047 ft | 361 kts | 255° |
| 2026-03-27 13:11 | 37.85668 | -4.81095 | 22632 ft | 359 kts | 255° |
| 2026-03-27 13:11 | 37.84901 | -4.84086 | 22249 ft | 356 kts | 254° |
| 2026-03-27 13:11 | 37.84233 | -4.87082 | 21901 ft | 351 kts | 259° |
| 2026-03-27 13:12 | 37.83744 | -4.90090 | 21529 ft | 347 kts | 262° |
| 2026-03-27 13:12 | 37.83313 | -4.93087 | 21057 ft | 348 kts | 262° |
| 2026-03-27 13:12 | 37.82886 | -4.96118 | 20603 ft | 348 kts | 262° |
| 2026-03-27 13:12 | 37.82455 | -4.99116 | 20214 ft | 347 kts | 262° |
| 2026-03-27 13:13 | 37.82014 | -5.02116 | 19826 ft | 345 kts | 262° |
| 2026-03-27 13:13 | 37.81566 | -5.05092 | 19449 ft | 344 kts | 261° |
| 2026-03-27 13:13 | 37.81114 | -5.08056 | 19075 ft | 343 kts | 261° |
| 2026-03-27 13:13 | 37.80658 | -5.11012 | 18702 ft | 342 kts | 261° |
| 2026-03-27 13:14 | 37.80202 | -5.13957 | 18330 ft | 341 kts | 261° |
| 2026-03-27 13:14 | 37.79742 | -5.16910 | 17885 ft | 340 kts | 261° |
| 2026-03-27 13:14 | 37.79286 | -5.19830 | 17492 ft | 338 kts | 261° |
| 2026-03-27 13:14 | 37.78829 | -5.22747 | 17116 ft | 336 kts | 261° |
| 2026-03-27 13:15 | 37.78375 | -5.25641 | 16743 ft | 335 kts | 261° |
| 2026-03-27 13:15 | 37.77930 | -5.28475 | 16379 ft | 333 kts | 261° |
| 2026-03-27 13:15 | 37.77478 | -5.31342 | 16012 ft | 331 kts | 261° |
| 2026-03-27 13:15 | 37.77028 | -5.34195 | 15644 ft | 330 kts | 261° |
| 2026-03-27 13:16 | 37.76580 | -5.37027 | 15290 ft | 328 kts | 261° |
| 2026-03-27 13:16 | 37.76133 | -5.39854 | 14933 ft | 327 kts | 261° |
| 2026-03-27 13:16 | 37.75689 | -5.42662 | 14574 ft | 326 kts | 261° |
| 2026-03-27 13:16 | 37.75243 | -5.45464 | 14215 ft | 325 kts | 262° |
| 2026-03-27 13:17 | 37.74799 | -5.48264 | 13851 ft | 324 kts | 262° |
| 2026-03-27 13:17 | 37.74356 | -5.51050 | 13454 ft | 323 kts | 262° |
| 2026-03-27 13:17 | 37.73912 | -5.53831 | 13075 ft | 322 kts | 262° |
| 2026-03-27 13:17 | 37.73470 | -5.56596 | 12703 ft | 320 kts | 262° |
| 2026-03-27 13:18 | 37.73030 | -5.59343 | 12357 ft | 319 kts | 262° |
| 2026-03-27 13:18 | 37.72590 | -5.62089 | 11989 ft | 318 kts | 262° |
| 2026-03-27 13:18 | 37.72152 | -5.64820 | 11635 ft | 317 kts | 262° |
| 2026-03-27 13:18 | 37.71714 | -5.67544 | 11291 ft | 315 kts | 262° |
| 2026-03-27 13:19 | 37.71278 | -5.70252 | 10947 ft | 314 kts | 262° |
| 2026-03-27 13:19 | 37.70843 | -5.72946 | 10586 ft | 313 kts | 262° |
| 2026-03-27 13:19 | 37.70408 | -5.75643 | 10252 ft | 312 kts | 262° |
| 2026-03-27 13:19 | 37.69979 | -5.78294 | 10061 ft | 305 kts | 262° |
| 2026-03-27 13:20 | 37.69552 | -5.80922 | 9683 ft | 304 kts | 262° |
| 2026-03-27 13:20 | 37.69273 | -5.82647 | 9461 ft | 303 kts | 262° |
| 2026-03-27 13:20 | 37.68714 | -5.86098 | 9006 ft | 302 kts | 261° |
| 2026-03-27 13:20 | 37.68292 | -5.88694 | 8662 ft | 301 kts | 261° |
| 2026-03-27 13:21 | 37.67872 | -5.91276 | 8316 ft | 300 kts | 261° |
| 2026-03-27 13:21 | 37.67453 | -5.93850 | 7988 ft | 299 kts | 261° |
| 2026-03-27 13:21 | 37.67170 | -5.95581 | 7762 ft | 298 kts | 261° |
| 2026-03-27 13:21 | 37.66750 | -5.98146 | 7430 ft | 297 kts | 261° |
| 2026-03-27 13:22 | 37.66299 | -6.00689 | 7085 ft | 298 kts | 253° |
| 2026-03-27 13:22 | 37.65251 | -6.02880 | 6749 ft | 297 kts | 224° |
| 2026-03-27 13:22 | 37.63650 | -6.04494 | 6424 ft | 294 kts | 213° |
| 2026-03-27 13:22 | 37.61956 | -6.05954 | 6047 ft | 294 kts | 213° |
| 2026-03-27 13:23 | 37.60264 | -6.07397 | 5703 ft | 294 kts | 213° |
| 2026-03-27 13:23 | 37.58575 | -6.08849 | 5364 ft | 292 kts | 213° |
| 2026-03-27 13:23 | 37.56910 | -6.10298 | 5042 ft | 290 kts | 213° |
| 2026-03-27 13:23 | 37.55259 | -6.11744 | 4716 ft | 288 kts | 213° |
| 2026-03-27 13:24 | 37.53619 | -6.13184 | 4376 ft | 287 kts | 213° |
| 2026-03-27 13:24 | 37.51901 | -6.14420 | 4014 ft | 282 kts | 195° |
| 2026-03-27 13:24 | 37.49986 | -6.14596 | 3762 ft | 273 kts | 169° |
| 2026-03-27 13:24 | 37.48158 | -6.14090 | 3469 ft | 268 kts | 161° |
| 2026-03-27 13:25 | 37.46375 | -6.13440 | 3148 ft | 265 kts | 162° |
| 2026-03-27 13:25 | 37.44611 | -6.12802 | 2845 ft | 260 kts | 162° |
| 2026-03-27 13:25 | 37.42955 | -6.12049 | 2529 ft | 248 kts | 144° |
| 2026-03-27 13:25 | 37.41940 | -6.10478 | 2376 ft | 227 kts | 106° |
| 2026-03-27 13:26 | 37.41752 | -6.08630 | 2364 ft | 200 kts | 89° |
| 2026-03-27 13:26 | 37.41748 | -6.06975 | 2316 ft | 183 kts | 88° |
| 2026-03-27 13:26 | 37.41751 | -6.05456 | 2173 ft | 165 kts | 89° |
| 2026-03-27 13:26 | 37.41754 | -6.04087 | 2042 ft | 152 kts | 88° |
| 2026-03-27 13:27 | 37.41759 | -6.02772 | 1877 ft | 155 kts | 90° |
| 2026-03-27 13:27 | 37.41761 | -6.01447 | 1708 ft | 150 kts | 88° |
| 2026-03-27 13:27 | 37.41761 | -6.00140 | 1504 ft | 147 kts | 88° |
| 2026-03-27 13:27 | 37.41759 | -5.98860 | 1303 ft | 142 kts | 86° |
| 2026-03-27 13:28 | 37.41769 | -5.97576 | 1108 ft | 152 kts | 85° |
| 2026-03-27 13:28 | 37.41773 | -5.96246 | 885 ft | 149 kts | 88° |
| 2026-03-27 13:28 | 37.41777 | -5.94951 | 707 ft | 148 kts | 85° |
| 2026-03-27 13:28 | 37.41781 | -5.93631 | 482 ft | 149 kts | 86° |
| 2026-03-27 13:29 | 37.41764 | -5.92360 | 322 ft | 146 kts | 83° |
| 2026-03-27 13:29 | 37.41780 | -5.91079 | 105 ft | 147 kts | 84° |
| 2026-03-27 13:29 | 37.41793 | -5.89941 | 94 ft | 102 kts | 90° |
| 2026-03-27 13:29 | 37.41793 | -5.89331 | 95 ft | 28 kts | 90° |
| 2026-03-27 13:30 | 37.41841 | -5.89261 | 96 ft | 1 kts | 351° |
| 2026-03-27 13:30 | 37.41889 | -5.89290 | 94 ft | 14 kts | 332° |
| 2026-03-27 13:30 | 37.41981 | -5.89360 | 92 ft | 16 kts | 320° |
| 2026-03-27 13:30 | 37.42058 | -5.89455 | 93 ft | 15 kts | 314° |
| 2026-03-27 13:31 | 37.42131 | -5.89547 | 93 ft | 15 kts | 313° |
| 2026-03-27 13:31 | 37.42199 | -5.89635 | 92 ft | 14 kts | 316° |
| 2026-03-27 13:31 | 37.42266 | -5.89717 | 93 ft | 13 kts | 303° |
| 2026-03-27 13:31 | 37.42256 | -5.89790 | 93 ft | 7 kts | 283° |
| 2026-03-27 13:32 | 37.42294 | -5.89828 | 93 ft | 7 kts | 315° |
| 2026-03-27 13:32 | 37.42309 | -5.89848 | 95 ft | 0 kts | 315° |
| 2026-03-27 13:32 | 37.42309 | -5.89847 | 95 ft | 0 kts | 315° |
| 2026-03-27 13:33 | 37.42309 | -5.89848 | 95 ft | 0 kts | 315° |
| 2026-03-27 13:33 | 37.42309 | -5.89847 | 95 ft | 0 kts | 315° |
| 2026-03-27 13:33 | 37.42303 | -5.89850 | 93 ft | 0 kts | 345° |